Terminal Aerodrome Forecast
Issued by NWS Wakefield, VA

Home | Current Version | Previous Version | Text Only | Print | Product List | Glossary On
Versions: 1 2 3 4 5 6 7 8 9 10 11 12 13 14 15 16 17
291
FTUS41 KAKQ 192358 CCA
TAFORF
TAF COR
KORF 192358Z 2000/2024 35009G18KT P6SM SKC
     FM200100 35014G22KT P6SM SKC
     FM200700 34013KT P6SM SKC
     FM201500 35011KT P6SM SKC=

USA.gov is the U.S. government's official web portal to all federal, state and local government web resources and services.